Latest Weather Observations for Wiluna Airport

IDW60801

Issued at 3:13 am WST Wednesday 13 November 2019 (issued every 10 minutes, with the page automatically refreshed every 10 minutes)

About weather observations | Map of weather stations | Latest weather observations for WA | Other Formats
Station Details ID: 013044 Name: WILUNA AERO Lat: -26.63 Lon: 120.22 Height: 502.4 m
Data from the previous 72 hours. | See also: Recent months at Wiluna Airport
Date/Time
WST
Temp
°C
App
Temp
°C
Dew
Point
°C
Rel
Hum
%
Delta-T
°C
Wind Press
QNH
hPa
Press
MSL
hPa
Rain since
9am
mm
Dir  Spd
km/h
Gust
km/h
Spd
kts
Gust
kts
13/03:00am 19.5 15.4 2.4 32 8.1 SE 13 17 7 9 1020.9 1017.8 0.0
13/02:30am 19.9 15.1 2.7 32 8.2 SE 17 22 9 12 1021.0 1017.9 0.0
13/02:00am 20.4 15.2 2.7 31 8.5 SE 19 24 10 13 1021.0 1017.9 0.0
13/01:30am 20.7 15.4 3.0 31 8.6 SE 20 28 11 15 1021.0 1017.9 0.0
13/01:00am 21.2 16.0 2.5 29 9.0 SE 19 22 10 12 1020.8 1017.7 0.0
13/12:30am 22.1 16.4 2.8 28 9.4 ESE 22 30 12 16 1021.0 1017.9 0.0
13/12:00am 22.7 16.5 2.2 26 9.9 ESE 24 30 13 16 1021.2 1018.1 0.0
 
Date/Time
WST
Temp
°C
App
Temp
°C
Dew
Point
°C
Rel
Hum
%
Delta-T
°C
Wind Press
QNH
hPa
Press
MSL
hPa
Rain since
9am
mm
Dir  Spd
km/h
Gust
km/h
Spd
kts
Gust
kts
12/11:30pm 23.3 17.9 2.2 25 10.2 ESE 20 28 11 15 1021.2 1018.1 0.0
12/11:00pm 23.6 18.7 1.9 24 10.5 SE 17 24 9 13 1021.8 1018.8 0.0
12/10:30pm 24.4 18.9 1.9 23 11.0 SE 20 26 11 14 1021.7 1018.6 0.0
12/10:00pm 24.8 19.4 2.3 23 11.0 ESE 20 26 11 14 1021.6 1018.5 0.0
12/09:30pm 25.1 19.6 1.9 22 11.3 ESE 20 28 11 15 1021.5 1018.4 0.0
12/09:00pm 25.4 19.8 1.5 21 11.6 SE 20 30 11 16 1021.5 1018.4 0.0
12/08:30pm 25.9 19.8 0.5 19 12.2 SE 22 30 12 16 1021.4 1018.3 0.0
12/08:00pm 26.5 19.2 0.3 18 12.5 SE 28 37 15 20 1020.9 1017.8 0.0
12/07:30pm 26.7 19.1 0.4 18 12.7 SE 30 39 16 21 1020.4 1017.4 0.0
12/07:00pm 27.2 19.3 0.8 18 12.8 SE 32 43 17 23 1020.0 1017.0 0.0
12/06:30pm 27.9 19.0 0.6 17 13.3 SSE 37 46 20 25 1019.4 1016.3 0.0
12/06:00pm 28.4 18.7 0.2 16 13.7 SSE 41 50 22 27 1018.6 1015.5 0.0
12/05:30pm 29.5 20.1 0.2 15 14.3 SSE 39 48 21 26 1018.3 1015.3 0.0
12/05:00pm 30.6 21.5 -0.9 13 15.2 SE 37 48 20 26 1017.9 1014.8 0.0
12/04:30pm 30.7 21.6 -0.8 13 15.3 SE 37 48 20 26 1017.1 1014.0 0.0
12/04:00pm 31.8 23.4 -1.1 12 16.0 SE 33 43 18 23 1017.0 1013.9 0.0
12/03:30pm 32.0 22.7 -2.1 11 16.3 ESE 37 52 20 28 1016.7 1013.6 0.0
12/03:20pm 31.9 22.6 -2.2 11 16.3 ESE 37 56 20 30 1016.6 1013.5 0.0
12/03:00pm 32.2 22.2 -2.0 11 16.4 ESE 41 52 22 28 1016.5 1013.4 0.0
12/02:30pm 32.3 22.5 -3.2 10 16.7 ESE 39 54 21 29 1016.7 1013.6 0.0
12/02:15pm 32.4 22.8 -1.8 11 16.5 ESE 39 52 21 28 1016.7 1013.6 0.0
12/02:11pm 32.8 22.7 -2.8 10 16.9 ESE 41 52 22 28 1016.7 1013.6 0.0
12/02:00pm 33.2 24.2 -2.5 10 17.1 E 35 52 19 28 1016.9 1013.8 0.0
12/01:30pm 32.4 23.7 -3.1 10 16.8 E 33 52 18 28 1017.3 1014.2 0.0
12/01:25pm 32.8 24.4 -2.8 10 16.9 E 32 50 17 27 1017.4 1014.3 0.0
12/01:04pm 31.5 22.9 -2.5 11 16.1 E 33 48 18 26 1017.7 1014.6 0.0
12/01:00pm 30.8 22.7 -3.0 11 15.8 ENE 30 44 16 24 1017.9 1014.8 0.0
12/12:54pm 31.7 23.2 -3.6 10 16.4 E 32 50 17 27 1017.9 1014.8 0.0
12/12:43pm 30.8 22.1 -3.0 11 15.8 E 33 44 18 24 1018.0 1014.9 0.0
12/12:30pm 32.1 22.8 -2.0 11 16.4 ESE 37 48 20 26 1018.1 1015.0 0.0
12/12:24pm 31.7 22.8 -2.3 11 16.2 ESE 35 54 19 29 1018.1 1015.0 0.0
12/12:00pm 30.5 19.9 -3.3 11 15.6 ESE 43 57 23 31 1018.0 1014.9 0.0
12/11:52am 30.7 20.9 -3.1 11 15.8 ESE 39 57 21 31 1018.1 1015.0 0.0
12/11:30am 29.8 20.1 -2.6 12 15.1 ESE 39 54 21 29 1018.6 1015.5 0.0
12/11:01am 28.8 18.7 -2.3 13 14.5 E 41 61 22 33 1018.8 1015.7 0.0
12/11:00am 29.3 19.6 -1.9 13 14.7 E 39 56 21 30 1018.8 1015.7 0.0
12/10:30am 28.4 19.2 1.0 17 13.5 ESE 39 48 21 26 1018.9 1015.8 0.0
12/10:20am 28.1 19.1 -0.1 16 13.6 E 37 56 20 30 1018.8 1015.7 0.0
12/10:00am 27.4 17.2 -0.6 16 13.3 ESE 43 52 23 28 1019.3 1016.2 0.0
12/09:30am 25.5 17.1 1.6 21 11.7 ESE 35 48 19 26 1020.1 1017.1 0.0
12/09:24am 25.5 18.1 1.6 21 11.7 ESE 30 48 16 26 1020.2 1017.2 0.0
12/09:00am 26.0 18.1 2.0 21 11.8 ESE 33 43 18 23 1020.0 1017.0 0.0
12/08:30am 25.5 16.5 2.2 22 11.5 ESE 39 50 21 27 1019.7 1016.6 0.0
12/08:00am 25.7 17.9 3.0 23 11.3 ESE 33 44 18 24 1019.8 1016.7 0.0
12/07:30am 25.1 17.5 3.1 24 11.0 ESE 32 43 17 23 1019.7 1016.6 0.0
12/07:00am 25.0 17.4 3.0 24 10.9 ESE 32 39 17 21 1019.6 1016.5 0.0
12/06:30am 24.1 18.5 3.4 26 10.3 SE 22 28 12 15 1019.3 1016.2 0.0
12/06:00am 24.3 19.2 3.0 25 10.5 ESE 19 26 10 14 1019.0 1015.9 0.0
12/05:30am 24.7 18.7 3.4 25 10.7 ESE 24 30 13 16 1018.1 1015.0 0.0
12/05:00am 24.8 19.2 3.5 25 10.7 ESE 22 30 12 16 1017.4 1014.3 0.0
12/04:30am 25.1 19.9 3.7 25 10.8 SE 20 28 11 15 1016.3 1013.2 0.0
12/04:00am 25.7 19.4 3.6 24 11.2 E 26 37 14 20 1016.2 1013.1 0.0
12/03:30am 25.1 21.5 3.1 24 11.0 SE 11 13 6 7 1015.7 1012.6 0.0
12/03:00am 25.8 21.7 4.3 25 11.0 SE 15 19 8 10 1015.4 1012.3 0.0
12/02:30am 26.8 21.6 3.3 22 11.9 SE 20 26 11 14 1014.8 1011.7 0.0
12/02:00am 27.5 22.2 3.2 21 12.4 ESE 20 30 11 16 1014.5 1011.3 0.0
12/01:30am 28.0 22.3 3.0 20 12.7 ESE 22 32 12 17 1013.9 1010.8 0.0
12/01:00am 28.6 21.5 3.5 20 12.9 ESE 30 48 16 26 1013.5 1010.4 0.0
12/12:40am 28.8 20.5 2.1 18 13.4 ESE 35 54 19 29 1013.3 1010.2 0.0
12/12:30am 29.1 20.8 2.4 18 13.5 ESE 35 50 19 27 1013.0 1009.9 0.0
12/12:08am 29.5 22.5 1.9 17 13.9 ESE 28 46 15 25 1012.9 1009.8 0.0
12/12:00am 29.5 22.9 1.9 17 13.9 ESE 26 37 14 20 1013.0 1009.9 0.0
 
Date/Time
WST
Temp
°C
App
Temp
°C
Dew
Point
°C
Rel
Hum
%
Delta-T
°C
Wind Press
QNH
hPa
Press
MSL
hPa
Rain since
9am
mm
Dir  Spd
km/h
Gust
km/h
Spd
kts
Gust
kts
11/11:30pm 29.4 22.8 1.8 17 13.9 ESE 26 30 14 16 1013.1 1010.0 0.0
11/11:00pm 29.5 22.9 1.9 17 13.9 SE 26 37 14 20 1013.4 1010.3 0.0
11/10:30pm 29.3 23.9 2.5 18 13.6 SE 20 26 11 14 1013.6 1010.5 0.0
11/10:00pm 29.9 24.6 3.0 18 13.8 SE 20 24 11 13 1013.7 1010.6 0.0
11/09:30pm 30.6 24.9 -0.9 13 15.2 SSE 19 22 10 12 1013.7 1010.6 0.0
11/09:00pm 29.2 25.9 -0.1 15 14.2 SSW 7 9 4 5 1013.4 1010.3 0.0
11/08:30pm 30.2 26.2 -2.3 12 15.3 SSW 9 11 5 6 1013.1 1010.0 0.0
11/08:00pm 30.4 26.8 -2.2 12 15.4 SSW 7 9 4 5 1013.0 1009.9 0.0
11/07:30pm 32.0 27.6 -2.1 11 16.3 SSW 11 13 6 7 1013.1 1010.0 0.0
11/07:00pm 32.5 28.8 -3.0 10 16.8 WSW 7 9 4 5 1012.8 1009.7 0.0
11/06:30pm 33.1 29.1 -2.6 10 17.1 WSW 9 13 5 7 1012.5 1009.3 0.0
11/06:00pm 33.6 28.1 -2.2 10 17.3 WSW 17 22 9 12 1012.0 1008.9 0.0
11/05:30pm 34.1 28.1 -1.8 10 17.5 WSW 20 28 11 15 1011.8 1008.7 0.0
11/05:00pm 34.7 30.3 -2.8 9 18.1 SW 11 17 6 9 1011.6 1008.5 0.0
11/04:30pm 35.1 29.4 -4.1 8 18.5 S 17 24 9 13 1011.3 1008.2 0.0
11/04:00pm 35.0 30.4 -4.1 8 18.5 SSE 11 17 6 9 1011.3 1008.2 0.0
11/03:30pm 35.9 29.7 -3.5 8 18.9 SSE 20 32 11 17 1011.2 1008.1 0.0
11/03:00pm 35.2 30.4 -2.4 9 18.3 SSE 13 20 7 11 1011.4 1008.3 0.0
11/02:30pm 35.8 30.5 -3.5 8 18.9 SE 15 26 8 14 1011.4 1008.3 0.0
11/02:00pm 35.4 30.3 -2.3 9 18.4 SSW 15 24 8 13 1011.9 1008.8 0.0
11/01:30pm 35.2 29.3 -2.4 9 18.3 SE 19 32 10 17 1012.1 1009.0 0.0
11/01:00pm 35.0 30.8 -1.1 10 17.9 SE 11 20 6 11 1012.4 1009.2 0.0
11/12:30pm 35.4 30.1 -0.8 10 18.1 SE 17 26 9 14 1012.8 1009.7 0.0
11/12:00pm 34.5 29.5 -1.5 10 17.7 E 15 28 8 15 1013.0 1009.9 0.0
11/11:30am 34.3 29.0 -0.4 11 17.3 ESE 17 28 9 15 1013.4 1010.3 0.0
11/11:00am 33.7 28.2 0.4 12 16.8 SE 19 32 10 17 1013.7 1010.6 0.0
11/10:30am 32.7 27.0 0.7 13 16.1 SE 20 30 11 16 1014.2 1011.1 0.0
11/10:00am 31.9 26.5 1.1 14 15.5 ESE 19 30 10 16 1014.5 1011.3 0.0
11/09:30am 30.1 24.7 1.5 16 14.4 ESE 19 26 10 14 1014.5 1011.3 0.0
11/09:00am 29.3 23.0 1.7 17 13.8 ESE 24 30 13 16 1014.5 1011.3 0.0
11/08:30am 28.3 22.0 1.7 18 13.2 SE 24 35 13 19 1014.6 1011.5 0.0
11/08:00am 27.6 22.0 1.2 18 13.0 SE 20 30 11 16 1014.4 1011.2 0.0
11/07:30am 26.7 22.1 -1.2 16 13.0 SE 13 17 7 9 1014.0 1010.9 0.0
11/07:00am 25.4 21.7 -3.1 15 12.7 SSW 7 9 4 5 1013.7 1010.6 0.0
11/06:30am 23.2 20.6 -4.8 15 11.9 CALM 0 0 0 0 1013.2 1010.1 0.0
11/06:00am 22.9 19.1 -5.1 15 11.8 SSW 6 9 3 5 1013.0 1009.9 0.0
11/05:30am 22.9 18.6 -5.1 15 11.8 SSW 9 11 5 6 1012.6 1009.4 0.0
11/05:00am 22.0 18.9 -5.8 15 11.5 SSW 2 6 1 3 1012.1 1009.0 0.0
11/04:30am 22.1 18.3 -5.7 15 11.5 SSW 6 6 3 3 1011.8 1008.7 0.0
11/04:00am 22.6 18.8 -5.3 15 11.7 SSW 6 7 3 4 1011.6 1008.5 0.0
11/03:30am 22.4 19.7 -5.5 15 11.6 CALM 0 0 0 0 1011.5 1008.4 0.0
11/03:00am 22.6 19.2 -5.3 15 11.7 SSW 4 9 2 5 1011.3 1008.2 0.0
11/02:30am 22.7 19.3 -5.2 15 11.7 SSW 4 7 2 4 1011.2 1008.1 0.0
11/02:00am 24.2 19.9 -4.9 14 12.5 SSW 9 11 5 6 1011.0 1007.9 0.0
11/01:30am 25.5 20.8 -4.9 13 13.2 SSW 11 13 6 7 1010.9 1007.7 0.0
11/01:00am 25.1 20.4 -5.2 13 13.0 SSW 11 13 6 7 1010.9 1007.7 0.0
11/12:30am 26.2 22.2 -5.4 12 13.6 SSW 7 11 4 6 1011.2 1008.1 0.0
11/12:00am 27.7 22.8 -6.6 10 14.7 SSW 11 15 6 8 1011.4 1008.3 0.0
 
Date/Time
WST
Temp
°C
App
Temp
°C
Dew
Point
°C
Rel
Hum
%
Delta-T
°C
Wind Press
QNH
hPa
Press
MSL
hPa
Rain since
9am
mm
Dir  Spd
km/h
Gust
km/h
Spd
kts
Gust
kts
10/11:30pm 28.8 23.3 -5.8 10 15.2 SSW 15 19 8 10 1011.7 1008.6 0.0
10/11:00pm 29.4 23.9 -5.4 10 15.4 SW 15 19 8 10 1012.0 1008.9 0.0
10/10:30pm 30.1 24.1 -6.2 9 16.0 SW 17 20 9 11 1012.1 1009.0 0.0
10/10:00pm 30.5 24.9 -5.9 9 16.2 SW 15 20 8 11 1012.1 1009.0 0.0
10/09:30pm 30.9 25.4 -5.6 9 16.3 SW 15 20 8 11 1012.1 1009.0 0.0
10/09:00pm 31.3 25.7 -6.8 8 16.8 WSW 15 19 8 10 1011.9 1008.8 0.0
10/08:30pm 32.2 27.0 -6.2 8 17.2 WSW 13 17 7 9 1011.7 1008.6 0.0
10/08:00pm 33.2 28.1 -5.5 8 17.7 WSW 13 15 7 8 1011.2 1008.1 0.0
10/07:30pm 34.3 28.3 -6.4 7 18.4 WSW 17 20 9 11 1011.0 1007.9 0.0
10/07:00pm 35.1 28.8 -5.8 7 18.9 W 19 28 10 15 1010.7 1007.5 0.0
10/06:30pm 36.0 29.6 -5.2 7 19.3 W 20 26 11 14 1010.3 1007.1 0.0
10/06:00pm 36.8 29.9 -6.6 6 20.0 W 22 32 12 17 1009.8 1006.7 0.0
10/05:30pm 37.8 30.5 -5.9 6 20.5 W 24 35 13 19 1009.4 1006.3 0.0
10/05:02pm 38.5 30.3 -7.8 5 21.2 W 28 50 15 27 1009.3 1006.2 0.0
10/05:00pm 38.1 30.3 -8.1 5 21.0 W 26 50 14 27 1009.3 1006.2 0.0
10/04:30pm 38.9 30.0 -7.5 5 21.4 W 32 50 17 27 1009.0 1005.8 0.0
10/04:15pm 39.2 32.8 -7.3 5 21.5 WNW 19 46 10 25 1009.0 1005.8 0.0
10/04:00pm 38.4 31.3 -7.8 5 21.2 WSW 22 33 12 18 1009.3 1006.2 0.0
10/03:47pm 38.4 32.9 -5.5 6 20.8 SW 15 56 8 30 1009.3 1006.2 0.0
10/03:30pm 37.5 33.1 -6.1 6 20.3 W 9 19 5 10 1009.5 1006.4 0.0
10/03:00pm 38.3 31.8 -7.9 5 21.1 NW 19 26 10 14 1009.7 1006.6 0.0
10/02:30pm 39.0 31.6 -7.4 5 21.4 W 24 35 13 19 1010.1 1006.9 0.0
10/02:07pm 38.5 30.5 -5.4 6 20.8 NW 28 46 15 25 1010.3 1007.1 0.0
10/02:00pm 38.5 31.3 -5.4 6 20.9 NW 24 46 13 25 1010.3 1007.1 0.0
10/01:32pm 39.2 31.4 -7.3 5 21.5 WNW 26 52 14 28 1010.5 1007.3 0.0
10/01:30pm 40.4 33.5 -6.5 5 22.2 NW 22 39 12 21 1010.6 1007.4 0.0
10/01:00pm 39.8 32.4 -6.9 5 21.9 WNW 24 39 13 21 1011.0 1007.9 0.0
10/12:30pm 39.3 31.5 -7.2 5 21.6 WSW 26 39 14 21 1011.3 1008.2 0.0
10/12:00pm 38.4 32.5 -5.5 6 20.8 WSW 17 32 9 17 1011.8 1008.7 0.0
10/11:30am 37.7 32.1 -6.0 6 20.4 SW 15 26 8 14 1012.5 1009.3 0.0
10/11:00am 36.3 29.9 -7.0 6 19.7 WNW 19 28 10 15 1013.0 1009.9 0.0
10/10:30am 36.5 29.9 -6.8 6 19.8 NW 20 33 11 18 1013.5 1010.4 0.0
10/10:00am 37.1 30.2 -6.4 6 20.1 N 22 41 12 22 1013.5 1010.4 0.0
10/09:30am 35.8 27.6 -7.3 6 19.5 N 28 41 15 22 1013.9 1010.8 0.0
10/09:00am 34.6 26.7 -8.2 6 18.9 N 26 41 14 22 1014.2 1011.1 0.0
10/08:36am 33.7 25.6 -6.8 7 18.1 N 28 46 15 25 1014.5 1011.3 0.0
10/08:30am 32.8 25.0 -7.5 7 17.7 N 26 41 14 22 1014.6 1011.5 0.0
10/08:00am 31.4 24.4 -6.8 8 16.8 N 22 39 12 21 1014.8 1011.7 0.0
10/07:30am 30.8 23.8 -7.2 8 16.5 N 22 32 12 17 1014.7 1011.6 0.0
10/07:00am 29.0 23.3 -7.0 9 15.5 N 15 20 8 11 1014.7 1011.6 0.0
10/06:30am 27.3 21.7 -6.9 10 14.5 NNE 15 20 8 11 1014.4 1011.2 0.0
10/06:00am 26.7 21.9 -6.2 11 14.1 NNE 11 19 6 10 1014.1 1011.0 0.0
10/05:30am 25.8 21.3 -6.9 11 13.7 N 9 17 5 9 1014.5 1011.3 0.0
10/05:00am 25.8 21.4 -5.7 12 13.5 WNW 9 17 5 9 1013.7 1010.6 0.0
10/04:30am 26.1 19.5 -6.6 11 13.8 NNE 20 30 11 16 1013.0 1009.9 0.0
10/04:00am 25.9 19.6 -5.6 12 13.5 NE 19 24 10 13 1012.6 1009.4 0.0
10/03:30am 25.6 19.3 -5.9 12 13.4 NE 19 24 10 13 1012.5 1009.3 0.0

Other formats

Comma delimited format used in spreadsheet applications
http://www.bom.gov.au/fwo/IDW60801/IDW60801.95439.axf

JavaScript Object Notation format (JSON) in row-major order
http://www.bom.gov.au/fwo/IDW60801/IDW60801.95439.json

Data quality

Most of these data are generated automatically and are frequently updated. Quality checks on data are not normally performed. It is possible for incorrect values to appear. Refer to information at About Latest Weather Observations and please check the disclaimer before using these data.